Time,TemperatureF,DewpointF,PressureIn,WindDirection,WindDirectionDegrees,WindSpeedMPH,WindSpeedGustMPH,Humidity,HourlyPrecipIn,Conditions,Clouds,dailyrainin,SoftwareType,DateUTC
2017-07-26 00:00:00,78.5,73.6,30.06,South,181,0.0,0.0,85,0.00,,,0.15,Wunderground v.1.15,2017-07-26 05:00:00,
2017-07-26 00:05:00,78.4,73.5,30.06,South,181,0.0,1.0,85,0.00,,,0.15,Wunderground v.1.15,2017-07-26 05:05:00,
2017-07-26 00:10:00,78.4,73.9,30.06,South,181,0.0,0.0,86,0.00,,,0.00,Wunderground v.1.15,2017-07-26 05:10:00,
2017-07-26 00:15:00,78.5,74.0,30.06,South,181,0.0,0.0,86,0.00,,,0.00,Wunderground v.1.15,2017-07-26 05:15:00,
2017-07-26 00:20:00,78.5,74.0,30.05,South,181,0.0,0.0,86,0.00,,,0.00,Wunderground v.1.15,2017-07-26 05:20:00,
2017-07-26 00:25:00,78.6,74.4,30.05,South,181,0.0,0.0,87,0.00,,,0.00,Wunderground v.1.15,2017-07-26 05:25:00,
2017-07-26 00:30:00,78.6,74.4,30.05,South,181,0.0,0.0,87,0.00,,,0.00,Wunderground v.1.15,2017-07-26 05:30:00,
2017-07-26 00:35:00,78.7,74.8,30.05,South,181,0.0,0.0,88,0.00,,,0.00,Wunderground v.1.15,2017-07-26 05:35:00,
2017-07-26 00:40:00,79.1,75.6,30.04,South,181,0.0,0.0,89,0.00,,,0.00,Wunderground v.1.15,2017-07-26 05:40:00,
2017-07-26 00:50:00,79.2,75.7,30.04,South,181,0.0,0.0,89,0.00,,,0.00,Wunderground v.1.15,2017-07-26 05:50:00,
2017-07-26 00:55:00,79.1,75.6,30.03,South,181,0.0,0.0,89,0.00,,,0.00,Wunderground v.1.15,2017-07-26 05:55:00,
2017-07-26 01:00:00,79.1,75.6,30.03,South,181,0.0,0.0,89,0.00,,,0.00,Wunderground v.1.15,2017-07-26 06:00:00,
2017-07-26 01:05:00,79.1,75.9,30.03,South,181,0.0,0.0,90,0.00,,,0.00,Wunderground v.1.15,2017-07-26 06:05:00,
2017-07-26 01:10:00,79.0,75.8,30.03,South,181,0.0,0.0,90,0.00,,,0.00,Wunderground v.1.15,2017-07-26 06:10:00,
2017-07-26 01:20:00,78.9,75.7,30.03,South,181,0.0,0.0,90,0.00,,,0.00,Wunderground v.1.15,2017-07-26 06:20:00,
2017-07-26 01:25:00,78.9,75.7,30.03,South,181,0.0,0.0,90,0.00,,,0.00,Wunderground v.1.15,2017-07-26 06:25:00,
2017-07-26 01:30:00,78.8,75.9,30.03,South,181,0.0,0.0,91,0.00,,,0.00,Wunderground v.1.15,2017-07-26 06:30:00,
2017-07-26 01:35:00,78.7,75.8,30.02,South,181,0.0,0.0,91,0.00,,,0.00,Wunderground v.1.15,2017-07-26 06:35:00,
2017-07-26 01:40:00,78.7,75.8,30.03,South,181,0.0,0.0,91,0.00,,,0.00,Wunderground v.1.15,2017-07-26 06:40:00,
2017-07-26 01:45:00,78.6,75.8,30.02,South,181,0.0,0.0,91,0.00,,,0.00,Wunderground v.1.15,2017-07-26 06:45:00,
2017-07-26 01:55:00,78.5,76.0,30.02,South,181,0.0,0.0,92,0.00,,,0.00,Wunderground v.1.15,2017-07-26 06:55:00,
2017-07-26 02:00:00,78.4,75.9,30.01,South,181,0.0,0.0,92,0.00,,,0.00,Wunderground v.1.15,2017-07-26 07:00:00,
2017-07-26 02:05:00,78.4,75.9,30.01,South,181,0.0,0.0,92,0.00,,,0.00,Wunderground v.1.15,2017-07-26 07:05:00,
2017-07-26 02:10:00,78.4,75.9,30.00,South,181,0.0,0.0,92,0.00,,,0.00,Wunderground v.1.15,2017-07-26 07:10:00,
2017-07-26 02:15:00,78.4,75.9,30.01,South,181,0.0,0.0,92,0.00,,,0.00,Wunderground v.1.15,2017-07-26 07:15:00,
2017-07-26 02:20:00,78.3,75.8,30.00,South,181,0.0,0.0,92,0.00,,,0.00,Wunderground v.1.15,2017-07-26 07:20:00,
2017-07-26 02:25:00,78.3,75.8,30.00,South,181,0.0,0.0,92,0.00,,,0.00,Wunderground v.1.15,2017-07-26 07:25:00,
2017-07-26 02:30:00,78.3,76.1,30.00,South,181,0.0,0.0,93,0.00,,,0.00,Wunderground v.1.15,2017-07-26 07:30:00,
2017-07-26 02:35:00,78.2,76.0,30.00,South,181,0.0,0.0,93,0.00,,,0.00,Wunderground v.1.15,2017-07-26 07:35:00,
2017-07-26 02:40:00,78.2,76.0,30.00,South,181,0.0,0.0,93,0.00,,,0.00,Wunderground v.1.15,2017-07-26 07:40:00,
2017-07-26 02:45:00,78.1,75.9,30.00,South,181,0.0,0.0,93,0.00,,,0.00,Wunderground v.1.15,2017-07-26 07:45:00,
2017-07-26 02:55:00,78.1,75.9,30.01,South,181,0.0,0.0,93,0.00,,,0.00,Wunderground v.1.15,2017-07-26 07:55:00,
2017-07-26 03:00:00,78.1,75.9,30.01,South,181,0.0,0.0,93,0.00,,,0.00,Wunderground v.1.15,2017-07-26 08:00:00,
2017-07-26 03:05:00,78.1,75.9,30.01,South,181,0.0,0.0,93,0.00,,,0.00,Wunderground v.1.15,2017-07-26 08:05:00,
2017-07-26 03:10:00,78.2,76.0,30.01,South,181,0.0,0.0,93,0.00,,,0.00,Wunderground v.1.15,2017-07-26 08:10:00,
2017-07-26 03:15:00,78.0,75.8,30.01,South,181,0.0,0.0,93,0.00,,,0.00,Wunderground v.1.15,2017-07-26 08:15:00,
2017-07-26 03:20:00,78.0,75.8,30.01,South,181,0.0,0.0,93,0.00,,,0.00,Wunderground v.1.15,2017-07-26 08:20:00,
2017-07-26 03:30:00,77.9,75.7,30.01,South,181,0.0,0.0,93,0.00,,,0.00,Wunderground v.1.15,2017-07-26 08:30:00,
2017-07-26 03:35:00,77.9,75.7,30.01,South,181,0.0,0.0,93,0.00,,,0.00,Wunderground v.1.15,2017-07-26 08:35:00,
2017-07-26 03:40:00,77.8,75.9,30.01,South,181,0.0,0.0,94,0.00,,,0.00,Wunderground v.1.15,2017-07-26 08:40:00,
2017-07-26 03:45:00,77.7,75.8,30.01,South,181,0.0,0.0,94,0.00,,,0.00,Wunderground v.1.15,2017-07-26 08:45:00,
2017-07-26 03:50:00,77.7,75.8,30.02,South,181,0.0,0.0,94,0.00,,,0.00,Wunderground v.1.15,2017-07-26 08:50:00,
2017-07-26 04:00:00,77.6,75.7,30.02,South,181,0.0,0.0,94,0.00,,,0.00,Wunderground v.1.15,2017-07-26 09:00:00,
2017-07-26 04:05:00,77.6,75.7,30.02,South,181,0.0,0.0,94,0.00,,,0.00,Wunderground v.1.15,2017-07-26 09:05:00,
2017-07-26 04:10:00,77.5,75.6,30.02,South,181,0.0,0.0,94,0.00,,,0.00,Wunderground v.1.15,2017-07-26 09:10:00,
2017-07-26 04:15:00,77.5,75.6,30.02,South,181,0.0,0.0,94,0.00,,,0.00,Wunderground v.1.15,2017-07-26 09:15:00,
2017-07-26 04:20:00,77.6,75.7,30.02,South,181,0.0,0.0,94,0.00,,,0.00,Wunderground v.1.15,2017-07-26 09:20:00,
2017-07-26 04:25:00,77.6,75.7,30.02,South,181,0.0,0.0,94,0.00,,,0.00,Wunderground v.1.15,2017-07-26 09:25:00,
2017-07-26 04:30:00,77.5,75.6,30.02,South,181,0.0,0.0,94,0.00,,,0.00,Wunderground v.1.15,2017-07-26 09:30:00,
2017-07-26 04:35:00,77.5,75.6,30.02,South,181,0.0,0.0,94,0.00,,,0.00,Wunderground v.1.15,2017-07-26 09:35:00,
2017-07-26 04:40:00,77.4,75.5,30.03,South,181,0.0,0.0,94,0.00,,,0.00,Wunderground v.1.15,2017-07-26 09:40:00,
2017-07-26 04:45:00,77.4,75.5,30.03,South,181,0.0,0.0,94,0.00,,,0.00,Wunderground v.1.15,2017-07-26 09:45:00,
2017-07-26 04:50:00,77.4,75.5,30.03,South,181,0.0,0.0,94,0.00,,,0.00,Wunderground v.1.15,2017-07-26 09:50:00,
2017-07-26 04:55:00,77.4,75.5,30.03,South,181,0.0,0.0,94,0.00,,,0.00,Wunderground v.1.15,2017-07-26 09:55:00,
2017-07-26 05:05:00,77.4,75.5,30.03,South,181,0.0,0.0,94,0.00,,,0.00,Wunderground v.1.15,2017-07-26 10:05:00,
2017-07-26 05:10:00,77.5,75.6,30.04,South,181,0.0,0.0,94,0.00,,,0.00,Wunderground v.1.15,2017-07-26 10:10:00,
2017-07-26 05:15:00,77.5,75.6,30.04,South,181,0.0,0.0,94,0.00,,,0.00,Wunderground v.1.15,2017-07-26 10:15:00,
2017-07-26 05:20:00,77.6,75.7,30.04,South,181,0.0,0.0,94,0.00,,,0.00,Wunderground v.1.15,2017-07-26 10:20:00,
2017-07-26 05:25:00,77.6,75.7,30.04,South,181,0.0,0.0,94,0.00,,,0.00,Wunderground v.1.15,2017-07-26 10:25:00,
2017-07-26 05:35:00,77.5,75.6,30.04,South,181,0.0,0.0,94,0.00,,,0.00,Wunderground v.1.15,2017-07-26 10:35:00,
2017-07-26 05:40:00,77.4,75.5,30.04,South,181,0.0,0.0,94,0.00,,,0.00,Wunderground v.1.15,2017-07-26 10:40:00,
2017-07-26 05:45:00,77.3,75.4,30.04,South,181,0.0,0.0,94,0.00,,,0.00,Wunderground v.1.15,2017-07-26 10:45:00,
2017-07-26 05:50:00,77.3,75.4,30.04,South,181,0.0,0.0,94,0.00,,,0.00,Wunderground v.1.15,2017-07-26 10:50:00,
2017-07-26 05:55:00,77.2,75.3,30.05,South,181,0.0,0.0,94,0.00,,,0.00,Wunderground v.1.15,2017-07-26 10:55:00,
2017-07-26 06:00:00,77.1,75.2,30.05,South,181,0.0,0.0,94,0.00,,,0.00,Wunderground v.1.15,2017-07-26 11:00:00,
2017-07-26 06:05:00,77.0,75.1,30.05,South,181,0.0,0.0,94,0.00,,,0.00,Wunderground v.1.15,2017-07-26 11:05:00,
2017-07-26 06:10:00,76.9,75.0,30.05,South,181,0.0,0.0,94,0.00,,,0.00,Wunderground v.1.15,2017-07-26 11:10:00,
2017-07-26 06:15:00,77.0,75.1,30.05,South,181,0.0,0.0,94,0.00,,,0.00,Wunderground v.1.15,2017-07-26 11:15:00,
2017-07-26 06:20:00,77.0,75.1,30.05,South,181,0.0,0.0,94,0.00,,,0.00,Wunderground v.1.15,2017-07-26 11:20:00,
2017-07-26 06:25:00,76.9,75.0,30.05,South,181,0.0,0.0,94,0.00,,,0.00,Wunderground v.1.15,2017-07-26 11:25:00,
2017-07-26 06:30:00,76.7,75.2,30.05,South,181,0.0,0.0,95,0.00,,,0.00,Wunderground v.1.15,2017-07-26 11:30:00,
2017-07-26 06:40:00,76.7,75.2,30.05,South,181,0.0,0.0,95,0.00,,,0.00,Wunderground v.1.15,2017-07-26 11:40:00,
2017-07-26 06:45:00,76.7,75.2,30.05,South,181,0.0,0.0,95,0.00,,,0.00,Wunderground v.1.15,2017-07-26 11:45:00,
2017-07-26 06:50:00,76.6,75.1,30.05,South,181,0.0,0.0,95,0.00,,,0.00,Wunderground v.1.15,2017-07-26 11:50:00,
2017-07-26 06:55:00,76.5,75.0,30.05,South,181,0.0,0.0,95,0.00,,,0.00,Wunderground v.1.15,2017-07-26 11:55:00,
2017-07-26 07:00:00,76.5,75.0,30.05,South,181,0.0,0.0,95,0.00,,,0.00,Wunderground v.1.15,2017-07-26 12:00:00,
2017-07-26 07:10:00,76.5,75.0,30.05,South,181,0.0,0.0,95,0.00,,,0.00,Wunderground v.1.15,2017-07-26 12:10:00,
2017-07-26 07:15:00,76.5,75.0,30.05,South,181,0.0,0.0,95,0.00,,,0.00,Wunderground v.1.15,2017-07-26 12:15:00,
2017-07-26 07:20:00,76.7,75.2,30.05,South,181,0.0,0.0,95,0.00,,,0.00,Wunderground v.1.15,2017-07-26 12:20:00,
2017-07-26 07:25:00,77.0,75.5,30.06,South,181,0.0,0.0,95,0.00,,,0.00,Wunderground v.1.15,2017-07-26 12:25:00,
2017-07-26 07:30:00,77.3,75.8,30.06,South,181,0.0,0.0,95,0.00,,,0.00,Wunderground v.1.15,2017-07-26 12:30:00,
2017-07-26 07:35:00,77.5,76.0,30.06,South,181,0.0,0.0,95,0.00,,,0.00,Wunderground v.1.15,2017-07-26 12:35:00,
2017-07-26 07:45:00,78.0,76.5,30.07,South,181,0.0,0.0,95,0.00,,,0.00,Wunderground v.1.15,2017-07-26 12:45:00,
2017-07-26 07:50:00,78.2,76.6,30.07,South,181,0.0,0.0,95,0.00,,,0.00,Wunderground v.1.15,2017-07-26 12:50:00,
2017-07-26 07:55:00,78.5,76.9,30.06,South,181,0.0,0.0,95,0.00,,,0.00,Wunderground v.1.15,2017-07-26 12:55:00,
2017-07-26 08:00:00,78.7,77.1,30.06,South,181,0.0,0.0,95,0.00,,,0.00,Wunderground v.1.15,2017-07-26 13:00:00,
2017-07-26 08:05:00,78.8,77.2,30.06,South,181,0.0,0.0,95,0.00,,,0.00,Wunderground v.1.15,2017-07-26 13:05:00,
2017-07-26 08:15:00,79.2,77.6,30.07,South,181,0.0,0.0,95,0.00,,,0.00,Wunderground v.1.15,2017-07-26 13:15:00,
2017-07-26 08:20:00,79.4,77.8,30.07,South,181,0.0,0.0,95,0.00,,,0.00,Wunderground v.1.15,2017-07-26 13:20:00,
2017-07-26 08:25:00,80.2,78.3,30.07,South,181,0.0,0.0,94,0.00,,,0.00,Wunderground v.1.15,2017-07-26 13:25:00,
2017-07-26 08:30:00,81.0,78.8,30.08,South,181,1.0,1.0,93,0.00,,,0.00,Wunderground v.1.15,2017-07-26 13:30:00,
2017-07-26 08:35:00,81.9,79.0,30.08,South,181,1.0,2.0,91,0.00,,,0.00,Wunderground v.1.15,2017-07-26 13:35:00,
2017-07-26 08:40:00,82.6,78.7,30.07,South,181,1.0,1.0,88,0.00,,,0.00,Wunderground v.1.15,2017-07-26 13:40:00,
2017-07-26 08:45:00,83.3,79.0,30.07,South,181,2.0,2.0,87,0.00,,,0.00,Wunderground v.1.15,2017-07-26 13:45:00,
2017-07-26 08:50:00,83.9,79.3,30.07,South,181,1.0,2.0,86,0.00,,,0.00,Wunderground v.1.15,2017-07-26 13:50:00,
2017-07-26 08:55:00,84.1,78.7,30.07,South,182,2.0,3.0,84,0.00,,,0.00,Wunderground v.1.15,2017-07-26 13:55:00,
2017-07-26 09:00:00,84.5,79.1,30.07,South,183,3.0,3.0,84,0.00,,,0.00,Wunderground v.1.15,2017-07-26 14:00:00,
2017-07-26 09:05:00,84.5,78.4,30.07,SSW,198,3.0,3.0,82,0.00,,,0.00,Wunderground v.1.15,2017-07-26 14:05:00,
2017-07-26 09:10:00,84.4,78.3,30.07,SSW,210,3.0,3.0,82,0.00,,,0.00,Wunderground v.1.15,2017-07-26 14:10:00,
2017-07-26 09:20:00,84.7,77.8,30.07,SW,220,2.0,3.0,80,0.00,,,0.00,Wunderground v.1.15,2017-07-26 14:20:00,
2017-07-26 09:25:00,84.3,77.8,30.07,SW,228,3.0,3.0,81,0.00,,,0.00,Wunderground v.1.15,2017-07-26 14:25:00,
2017-07-26 09:30:00,84.4,77.9,30.07,SW,229,3.0,6.0,81,0.00,,,0.00,Wunderground v.1.15,2017-07-26 14:30:00,
2017-07-26 09:35:00,84.7,78.6,30.07,SW,229,3.0,6.0,82,0.00,,,0.00,Wunderground v.1.15,2017-07-26 14:35:00,
2017-07-26 09:40:00,85.3,78.8,30.07,WSW,237,3.0,3.0,81,0.00,,,0.00,Wunderground v.1.15,2017-07-26 14:40:00,
2017-07-26 09:50:00,86.9,79.6,30.07,WSW,245,3.0,3.0,79,0.00,,,0.00,Wunderground v.1.15,2017-07-26 14:50:00,
2017-07-26 09:55:00,87.2,79.5,30.06,WSW,237,3.0,5.0,78,0.00,,,0.01,Wunderground v.1.15,2017-07-26 14:55:00,
2017-07-26 10:00:00,87.4,79.3,30.06,WSW,244,3.0,3.0,77,0.00,,,0.01,Wunderground v.1.15,2017-07-26 15:00:00,
2017-07-26 10:05:00,87.1,77.4,30.07,WSW,258,3.0,6.0,73,0.00,,,0.01,Wunderground v.1.15,2017-07-26 15:05:00,
2017-07-26 10:10:00,87.1,77.8,30.07,SW,233,4.0,4.0,74,0.00,,,0.01,Wunderground v.1.15,2017-07-26 15:10:00,
2017-07-26 10:20:00,87.9,78.2,30.07,SW,236,2.0,5.0,73,0.00,,,0.01,Wunderground v.1.15,2017-07-26 15:20:00,
2017-07-26 10:25:00,87.8,77.6,30.07,WSW,250,3.0,5.0,72,0.00,,,0.01,Wunderground v.1.15,2017-07-26 15:25:00,
2017-07-26 10:30:00,87.9,77.7,30.07,WSW,245,4.0,4.0,72,0.00,,,0.01,Wunderground v.1.15,2017-07-26 15:30:00,
2017-07-26 10:35:00,88.1,77.9,30.07,WSW,243,4.0,5.0,72,0.00,,,0.01,Wunderground v.1.15,2017-07-26 15:35:00,
2017-07-26 10:40:00,88.3,77.3,30.07,SW,233,4.0,4.0,70,0.00,,,0.01,Wunderground v.1.15,2017-07-26 15:40:00,
2017-07-26 10:45:00,88.1,77.5,30.07,SW,236,4.0,4.0,71,0.00,,,0.01,Wunderground v.1.15,2017-07-26 15:45:00,
2017-07-26 10:50:00,88.4,76.9,30.07,WSW,258,4.0,4.0,69,0.00,,,0.01,Wunderground v.1.15,2017-07-26 15:50:00,
2017-07-26 10:55:00,88.6,78.0,30.06,WSW,256,3.0,4.0,71,0.00,,,0.01,Wunderground v.1.15,2017-07-26 15:55:00,
2017-07-26 11:00:00,89.0,78.8,30.06,WSW,256,3.0,5.0,72,0.00,,,0.01,Wunderground v.1.15,2017-07-26 16:00:00,
2017-07-26 11:05:00,89.4,77.9,30.06,WSW,256,3.0,5.0,69,0.00,,,0.01,Wunderground v.1.15,2017-07-26 16:05:00,
2017-07-26 11:10:00,89.3,78.2,30.06,WSW,256,3.0,3.0,70,0.00,,,0.01,Wunderground v.1.15,2017-07-26 16:10:00,
2017-07-26 11:15:00,89.9,79.2,30.06,WSW,256,2.0,3.0,71,0.00,,,0.01,Wunderground v.1.15,2017-07-26 16:15:00,
2017-07-26 11:25:00,88.7,78.5,30.06,WSW,252,3.0,4.0,72,0.00,,,0.01,Wunderground v.1.15,2017-07-26 16:25:00,
2017-07-26 11:30:00,89.3,78.2,30.06,NW,312,2.0,2.0,70,0.00,,,0.01,Wunderground v.1.15,2017-07-26 16:30:00,
2017-07-26 11:35:00,89.1,77.6,30.06,WSW,241,2.0,2.0,69,0.00,,,0.01,Wunderground v.1.15,2017-07-26 16:35:00,
2017-07-26 11:40:00,89.4,78.8,30.06,West,259,3.0,3.0,71,0.00,,,0.01,Wunderground v.1.15,2017-07-26 16:40:00,
2017-07-26 11:45:00,89.6,78.1,30.06,WSW,254,3.0,3.0,69,0.00,,,0.01,Wunderground v.1.15,2017-07-26 16:45:00,
2017-07-26 11:50:00,89.4,78.3,30.06,WSW,254,2.0,2.0,70,0.00,,,0.01,Wunderground v.1.15,2017-07-26 16:50:00,
2017-07-26 12:00:00,90.4,79.3,30.05,WSW,254,1.0,1.0,70,0.00,,,0.01,Wunderground v.1.15,2017-07-26 17:00:00,
2017-07-26 12:05:00,90.7,79.6,30.05,WSW,254,1.0,3.0,70,0.00,,,0.01,Wunderground v.1.15,2017-07-26 17:05:00,
2017-07-26 12:10:00,91.3,79.7,30.05,WSW,254,1.0,4.0,69,0.00,,,0.01,Wunderground v.1.15,2017-07-26 17:10:00,
2017-07-26 12:15:00,90.7,78.2,30.05,West,277,2.0,4.0,67,0.00,,,0.01,Wunderground v.1.15,2017-07-26 17:15:00,
2017-07-26 12:20:00,90.6,78.6,30.05,West,274,2.0,3.0,68,0.00,,,0.01,Wunderground v.1.15,2017-07-26 17:20:00,
2017-07-26 12:30:00,92.0,79.0,30.05,West,274,1.0,1.0,66,0.00,,,0.01,Wunderground v.1.15,2017-07-26 17:30:00,
2017-07-26 12:35:00,91.4,78.0,30.05,SW,223,2.0,2.0,65,0.00,,,0.01,Wunderground v.1.15,2017-07-26 17:35:00,
2017-07-26 12:45:00,91.7,79.2,30.05,WSW,251,2.0,3.0,67,0.00,,,0.01,Wunderground v.1.15,2017-07-26 17:45:00,
2017-07-26 12:50:00,92.2,78.7,30.05,WSW,251,1.0,1.0,65,0.00,,,0.01,Wunderground v.1.15,2017-07-26 17:50:00,
2017-07-26 12:55:00,91.7,78.7,30.05,WNW,301,2.0,2.0,66,0.00,,,0.01,Wunderground v.1.15,2017-07-26 17:55:00,
2017-07-26 13:00:00,91.9,78.0,30.05,WNW,301,2.0,2.0,64,0.00,,,0.01,Wunderground v.1.15,2017-07-26 18:00:00,
2017-07-26 13:05:00,92.4,78.4,30.04,WNW,301,1.0,2.0,64,0.00,,,0.01,Wunderground v.1.15,2017-07-26 18:05:00,
2017-07-26 13:10:00,92.9,78.4,30.04,WNW,291,1.0,4.0,63,0.00,,,0.01,Wunderground v.1.15,2017-07-26 18:10:00,
2017-07-26 13:15:00,92.9,78.9,30.04,West,279,2.0,4.0,64,0.00,,,0.01,Wunderground v.1.15,2017-07-26 18:15:00,
2017-07-26 13:20:00,92.5,79.0,30.04,WNW,295,3.0,3.0,65,0.00,,,0.01,Wunderground v.1.15,2017-07-26 18:20:00,
2017-07-26 13:25:00,92.7,78.7,30.04,WNW,295,3.0,3.0,64,0.00,,,0.01,Wunderground v.1.15,2017-07-26 18:25:00,
2017-07-26 13:35:00,93.4,78.4,30.04,WNW,285,2.0,3.0,62,0.00,,,0.01,Wunderground v.1.15,2017-07-26 18:35:00,
2017-07-26 13:40:00,93.5,79.5,30.03,WSW,237,1.0,4.0,64,0.00,,,0.01,Wunderground v.1.15,2017-07-26 18:40:00,
2017-07-26 13:45:00,93.6,79.1,30.03,WSW,245,3.0,4.0,63,0.00,,,0.01,Wunderground v.1.15,2017-07-26 18:45:00,
2017-07-26 13:50:00,92.5,78.1,30.03,WSW,243,4.0,4.0,63,0.00,,,0.01,Wunderground v.1.15,2017-07-26 18:50:00,
2017-07-26 13:55:00,92.5,78.5,30.03,WSW,243,2.0,4.0,64,0.00,,,0.01,Wunderground v.1.15,2017-07-26 18:55:00,
2017-07-26 14:05:00,93.2,78.7,30.03,WSW,243,1.0,3.0,63,0.00,,,0.01,Wunderground v.1.15,2017-07-26 19:05:00,
2017-07-26 14:10:00,92.6,78.6,30.03,WSW,242,2.0,2.0,64,0.00,,,0.01,Wunderground v.1.15,2017-07-26 19:10:00,
2017-07-26 14:15:00,90.5,80.2,30.03,SW,215,3.0,3.0,72,0.00,,,0.02,Wunderground v.1.15,2017-07-26 19:15:00,
2017-07-26 14:20:00,88.4,79.9,30.03,SSW,197,3.0,3.0,76,0.00,,,0.02,Wunderground v.1.15,2017-07-26 19:20:00,
2017-07-26 14:25:00,86.8,79.9,30.04,South,185,2.0,3.0,80,1.19,,,0.06,Wunderground v.1.15,2017-07-26 19:25:00,
2017-07-26 14:30:00,85.4,79.3,30.03,South,177,1.0,2.0,82,0.74,,,0.08,Wunderground v.1.15,2017-07-26 19:30:00,
2017-07-26 14:40:00,83.8,78.8,30.03,South,175,0.0,0.0,85,0.07,,,0.11,Wunderground v.1.15,2017-07-26 19:40:00,
2017-07-26 14:45:00,83.8,79.5,30.03,South,175,0.0,0.0,87,0.04,,,0.11,Wunderground v.1.15,2017-07-26 19:45:00,
2017-07-26 14:50:00,83.8,79.5,30.03,South,175,0.0,0.0,87,0.00,,,0.11,Wunderground v.1.15,2017-07-26 19:50:00,
2017-07-26 14:55:00,84.0,80.1,30.02,South,175,0.0,0.0,88,0.00,,,0.11,Wunderground v.1.15,2017-07-26 19:55:00,
2017-07-26 15:00:00,84.3,80.4,30.02,South,175,0.0,0.0,88,0.00,,,0.11,Wunderground v.1.15,2017-07-26 20:00:00,
2017-07-26 15:05:00,84.5,80.6,30.02,South,175,0.0,0.0,88,0.00,,,0.11,Wunderground v.1.15,2017-07-26 20:05:00,
2017-07-26 15:10:00,84.8,80.8,30.02,South,175,0.0,0.0,88,0.00,,,0.11,Wunderground v.1.15,2017-07-26 20:10:00,
2017-07-26 15:15:00,85.2,81.2,30.02,South,175,0.0,0.0,88,0.00,,,0.11,Wunderground v.1.15,2017-07-26 20:15:00,
2017-07-26 15:20:00,85.7,81.7,30.02,South,175,0.0,0.0,88,0.00,,,0.11,Wunderground v.1.15,2017-07-26 20:20:00,
2017-07-26 15:25:00,85.9,81.2,30.02,South,175,0.0,0.0,86,0.00,,,0.11,Wunderground v.1.15,2017-07-26 20:25:00,
2017-07-26 15:30:00,86.0,80.6,30.02,South,175,0.0,2.0,84,0.00,,,0.11,Wunderground v.1.15,2017-07-26 20:30:00,
2017-07-26 15:40:00,83.6,76.4,30.02,NW,312,2.0,2.0,79,0.27,,,0.13,Wunderground v.1.15,2017-07-26 20:40:00,
2017-07-26 15:45:00,82.2,76.5,30.02,North,352,2.0,2.0,83,0.11,,,0.13,Wunderground v.1.15,2017-07-26 20:45:00,
2017-07-26 15:50:00,81.4,76.5,30.01,North,353,1.0,1.0,85,0.06,,,0.13,Wunderground v.1.15,2017-07-26 20:50:00,
2017-07-26 15:55:00,81.6,77.4,30.01,North,353,1.0,2.0,87,0.04,,,0.13,Wunderground v.1.15,2017-07-26 20:55:00,
2017-07-26 16:00:00,81.7,78.1,30.01,North,352,1.0,1.0,89,0.00,,,0.13,Wunderground v.1.15,2017-07-26 21:00:00,
2017-07-26 16:05:00,82.1,78.9,30.01,North,353,0.0,1.0,90,0.00,,,0.13,Wunderground v.1.15,2017-07-26 21:05:00,
2017-07-26 16:15:00,82.8,79.6,30.00,North,353,0.0,0.0,90,0.00,,,0.13,Wunderground v.1.15,2017-07-26 21:15:00,
2017-07-26 16:20:00,83.4,80.2,30.00,North,353,0.0,0.0,90,0.00,,,0.13,Wunderground v.1.15,2017-07-26 21:20:00,
2017-07-26 16:25:00,83.8,80.2,29.99,North,352,0.0,0.0,89,0.00,,,0.13,Wunderground v.1.15,2017-07-26 21:25:00,
2017-07-26 16:30:00,84.2,80.6,29.99,North,352,0.0,0.0,89,0.00,,,0.13,Wunderground v.1.15,2017-07-26 21:30:00,
2017-07-26 16:35:00,84.4,80.5,29.99,North,353,0.0,0.0,88,0.00,,,0.13,Wunderground v.1.15,2017-07-26 21:35:00,
2017-07-26 16:45:00,86.7,79.8,30.00,WSW,237,1.0,4.0,80,0.00,,,0.13,Wunderground v.1.15,2017-07-26 21:45:00,
2017-07-26 16:50:00,87.3,79.2,30.00,West,275,2.0,3.0,77,0.00,,,0.13,Wunderground v.1.15,2017-07-26 21:50:00,
2017-07-26 16:55:00,87.7,79.6,30.00,WSW,241,1.0,3.0,77,0.00,,,0.13,Wunderground v.1.15,2017-07-26 21:55:00,
2017-07-26 17:00:00,88.9,79.1,30.00,SW,223,2.0,2.0,73,0.00,,,0.13,Wunderground v.1.15,2017-07-26 22:00:00,
2017-07-26 17:05:00,89.9,79.7,30.00,SSE,164,2.0,2.0,72,0.00,,,0.13,Wunderground v.1.15,2017-07-26 22:05:00,
2017-07-26 17:10:00,90.6,79.0,30.00,SW,229,2.0,5.0,69,0.00,,,0.13,Wunderground v.1.15,2017-07-26 22:10:00,
2017-07-26 17:15:00,91.0,79.0,29.99,SSW,211,2.0,5.0,68,0.00,,,0.13,Wunderground v.1.15,2017-07-26 22:15:00,
2017-07-26 17:20:00,91.3,78.8,29.99,South,189,2.0,2.0,67,0.00,,,0.13,Wunderground v.1.15,2017-07-26 22:20:00,
2017-07-26 17:25:00,91.3,78.3,30.00,WSW,246,3.0,6.0,66,0.00,,,0.13,Wunderground v.1.15,2017-07-26 22:25:00,
2017-07-26 17:30:00,91.2,78.2,29.99,SW,220,2.0,2.0,66,0.00,,,0.13,Wunderground v.1.15,2017-07-26 22:30:00,
2017-07-26 17:35:00,91.4,78.0,29.99,SSE,168,2.0,3.0,65,0.00,,,0.13,Wunderground v.1.15,2017-07-26 22:35:00,
2017-07-26 17:40:00,91.5,78.1,30.00,SW,216,2.0,2.0,65,0.00,,,0.13,Wunderground v.1.15,2017-07-26 22:40:00,
2017-07-26 17:50:00,91.4,78.4,30.00,SW,233,2.0,3.0,66,0.00,,,0.13,Wunderground v.1.15,2017-07-26 22:50:00,
2017-07-26 17:55:00,91.3,77.4,30.00,WSW,255,2.0,3.0,64,0.00,,,0.13,Wunderground v.1.15,2017-07-26 22:55:00,
2017-07-26 18:00:00,91.2,77.8,30.00,WSW,242,2.0,2.0,65,0.00,,,0.13,Wunderground v.1.15,2017-07-26 23:00:00,
2017-07-26 18:05:00,91.4,77.0,29.99,SSE,162,2.0,2.0,63,0.00,,,0.13,Wunderground v.1.15,2017-07-26 23:05:00,
2017-07-26 18:10:00,91.2,77.3,29.99,SSW,209,2.0,3.0,64,0.00,,,0.13,Wunderground v.1.15,2017-07-26 23:10:00,
2017-07-26 18:20:00,91.2,77.3,29.99,West,260,2.0,4.0,64,0.00,,,0.13,Wunderground v.1.15,2017-07-26 23:20:00,
2017-07-26 18:25:00,91.0,77.6,29.99,South,170,2.0,4.0,65,0.00,,,0.13,Wunderground v.1.15,2017-07-26 23:25:00,
2017-07-26 18:30:00,90.8,76.5,29.99,SSE,160,2.0,3.0,63,0.00,,,0.13,Wunderground v.1.15,2017-07-26 23:30:00,
2017-07-26 18:35:00,90.4,76.1,29.99,SW,225,2.0,3.0,63,0.00,,,0.13,Wunderground v.1.15,2017-07-26 23:35:00,
2017-07-26 18:40:00,90.4,76.6,30.00,South,185,2.0,2.0,64,0.00,,,0.13,Wunderground v.1.15,2017-07-26 23:40:00,
2017-07-26 18:45:00,90.2,76.4,29.99,South,183,2.0,3.0,64,0.00,,,0.13,Wunderground v.1.15,2017-07-26 23:45:00,
2017-07-26 18:55:00,89.9,76.6,29.99,South,170,2.0,4.0,65,0.00,,,0.13,Wunderground v.1.15,2017-07-26 23:55:00,
2017-07-26 19:00:00,89.5,76.2,29.99,SSE,165,2.0,4.0,65,0.00,,,0.13,Wunderground v.1.15,2017-07-27 00:00:00,
2017-07-26 19:05:00,89.2,76.4,29.99,SSW,198,3.0,4.0,66,0.00,,,0.13,Wunderground v.1.15,2017-07-27 00:05:00,
2017-07-26 19:10:00,89.1,76.7,29.99,SSW,212,2.0,2.0,67,0.00,,,0.13,Wunderground v.1.15,2017-07-27 00:10:00,
2017-07-26 19:15:00,88.9,77.4,29.99,SSW,202,1.0,2.0,69,0.00,,,0.13,Wunderground v.1.15,2017-07-27 00:15:00,
2017-07-26 19:20:00,88.5,76.6,29.99,SSW,212,1.0,2.0,68,0.00,,,0.13,Wunderground v.1.15,2017-07-27 00:20:00,
2017-07-26 19:30:00,87.9,76.9,29.98,SW,233,2.0,2.0,70,0.00,,,0.13,Wunderground v.1.15,2017-07-27 00:30:00,